Time;durP1;ratioP1;P1;durP2;ratioP2;P2;SDS_P1;SDS_P2;PMS_P1;PMS_P2;Temp;Humidity;BMP_temperature;BMP_pressure;BME280_temperature;BME280_humidity;BME280_pressure;Samples;Min_cycle;Max_cycle;Signal;HPM_P1;HPM_P2
2022/05/16 00:02:34;;;;;;;8.18;4.47;;;;;;;;;;10440772;28;20267;-66
2022/05/16 00:07:38;;;;;;;12.80;4.65;;;;;;;;;;10472858;28;20045;-66
2022/05/16 00:12:40;;;;;;;9.27;5.10;;;;;;;;;;10458149;28;20232;-66
2022/05/16 00:17:42;;;;;;;9.80;5.13;;;;;;;;;;10450817;28;20111;-66
2022/05/16 00:22:46;;;;;;;10.43;5.32;;;;;;;;;;10430970;28;20267;-66
2022/05/16 00:27:49;;;;;;;11.35;5.18;;;;;;;;;;10460898;28;20042;-65
2022/05/16 00:32:51;;;;;;;14.70;5.47;;;;;;;;;;10408965;28;20270;-65
2022/05/16 00:37:55;;;;;;;10.63;5.35;;;;;;;;;;10447422;28;20045;-65
2022/05/16 00:43:03;;;;;;;14.48;5.65;;;;;;;;;;10408262;28;20041;-66
2022/05/16 00:48:06;;;;;;;11.05;5.88;;;;;;;;;;10439114;28;20115;-66
2022/05/16 00:53:11;;;;;;;16.55;6.25;;;;;;;;;;10438430;28;20360;-66
2022/05/16 00:58:16;;;;;;;12.03;6.40;;;;;;;;;;10438283;28;20061;-65
2022/05/16 01:08:45;;;;;;;24.10;7.30;;;;;;;;;;10450108;28;20056;-66
2022/05/16 01:13:47;;;;;;;11.00;6.10;;;;;;;;;;10437785;28;20049;-68
2022/05/16 01:18:50;;;;;;;14.13;6.55;;;;;;;;;;10435881;28;20100;-68
2022/05/16 01:23:59;;;;;;;12.00;6.32;;;;;;;;;;10437243;28;20271;-67
2022/05/16 01:29:03;;;;;;;13.27;7.20;;;;;;;;;;10456951;28;20042;-67
2022/05/16 01:34:05;;;;;;;12.77;6.88;;;;;;;;;;10423463;28;20061;-67
2022/05/16 01:39:09;;;;;;;14.10;7.28;;;;;;;;;;10395030;28;20069;-67
2022/05/16 01:44:11;;;;;;;15.68;7.18;;;;;;;;;;10409386;28;20077;-67
2022/05/16 01:49:14;;;;;;;10.98;7.18;;;;;;;;;;10460807;28;20057;-67
2022/05/16 01:54:18;;;;;;;16.02;6.97;;;;;;;;;;10441140;28;20056;-67
2022/05/16 01:59:21;;;;;;;18.75;8.10;;;;;;;;;;10431520;28;20317;-67
2022/05/16 02:04:23;;;;;;;13.75;6.68;;;;;;;;;;10471166;28;20041;-68
2022/05/16 02:09:27;;;;;;;13.57;7.30;;;;;;;;;;10474735;28;20122;-68
2022/05/16 02:14:29;;;;;;;11.57;7.53;;;;;;;;;;10465718;28;20080;-67
2022/05/16 02:19:31;;;;;;;18.35;7.60;;;;;;;;;;10457837;28;20079;-67
2022/05/16 02:24:42;;;;;;;14.30;7.60;;;;;;;;;;10395398;28;20062;-67
2022/05/16 02:29:45;;;;;;;18.25;7.88;;;;;;;;;;10414577;28;20045;-67
2022/05/16 02:34:48;;;;;;;20.48;10.50;;;;;;;;;;10467194;28;20060;-66
2022/05/16 02:39:51;;;;;;;17.45;8.88;;;;;;;;;;10461308;28;20049;-67
2022/05/16 02:44:54;;;;;;;18.33;8.70;;;;;;;;;;10474319;28;20367;-67
2022/05/16 02:49:57;;;;;;;15.18;9.07;;;;;;;;;;10471688;28;20289;-67
2022/05/16 02:55:01;;;;;;;16.08;8.70;;;;;;;;;;10434751;28;20189;-67
2022/05/16 03:00:08;;;;;;;24.67;10.95;;;;;;;;;;10449886;28;20054;-66
2022/05/16 03:05:11;;;;;;;17.98;8.07;;;;;;;;;;10392637;28;20050;-67
2022/05/16 03:10:16;;;;;;;16.95;8.25;;;;;;;;;;10391459;28;20045;-67
2022/05/16 03:15:18;;;;;;;16.50;8.60;;;;;;;;;;10461409;28;20037;-67
2022/05/16 03:20:21;;;;;;;17.38;8.07;;;;;;;;;;10440875;28;20038;-67
2022/05/16 03:25:24;;;;;;;15.70;7.47;;;;;;;;;;10392627;28;20054;-68
2022/05/16 03:30:27;;;;;;;14.95;7.90;;;;;;;;;;10431718;28;20061;-68
2022/05/16 03:35:29;;;;;;;16.23;7.65;;;;;;;;;;10443710;28;20073;-67
2022/05/16 03:40:45;;;;;;;14.90;8.18;;;;;;;;;;10409691;28;20056;-67
2022/05/16 03:45:47;;;;;;;12.57;7.03;;;;;;;;;;10465423;28;20041;-68
2022/05/16 03:50:50;;;;;;;15.70;8.60;;;;;;;;;;10464329;28;20088;-67
2022/05/16 03:55:54;;;;;;;12.73;7.55;;;;;;;;;;10398889;28;20173;-68
2022/05/16 04:00:57;;;;;;;12.88;5.90;;;;;;;;;;10416001;28;20095;-67
2022/05/16 04:05:59;;;;;;;7.88;5.18;;;;;;;;;;10398248;28;20060;-67
2022/05/16 04:11:04;;;;;;;9.97;5.30;;;;;;;;;;10416910;28;20041;-68
2022/05/16 04:16:06;;;;;;;12.63;7.25;;;;;;;;;;10437820;28;20040;-68
2022/05/16 04:21:08;;;;;;;;;;;;;;;;;;10438754;28;20045;-67
2022/05/16 04:26:12;;;;;;;10.05;6.30;;;;;;;;;;10437655;28;19916;-68
2022/05/16 04:31:14;;;;;;;14.25;4.38;;;;;;;;;;10437816;28;20045;-68
2022/05/16 04:36:17;;;;;;;9.65;4.20;;;;;;;;;;10436614;28;20360;-68
2022/05/16 04:46:40;;;;;;;4.82;3.08;;;;;;;;;;10450081;28;20060;-68
2022/05/16 04:51:43;;;;;;;5.35;2.92;;;;;;;;;;10424963;28;20292;-68
2022/05/16 04:56:47;;;;;;;8.77;3.00;;;;;;;;;;10405838;28;20057;-68
2022/05/16 05:01:50;;;;;;;7.38;2.67;;;;;;;;;;10433758;28;20068;-68
2022/05/16 05:06:52;;;;;;;8.32;3.00;;;;;;;;;;10435195;28;20088;-67
2022/05/16 05:17:16;;;;;;;4.20;2.20;;;;;;;;;;10459760;28;20053;-68
2022/05/16 05:22:19;;;;;;;5.35;2.30;;;;;;;;;;10434579;28;20391;-67
2022/05/16 05:27:23;;;;;;;6.25;2.53;;;;;;;;;;10440525;28;20084;-68
2022/05/16 05:32:25;;;;;;;3.03;1.63;;;;;;;;;;10445330;28;20056;-68
2022/05/16 05:37:27;;;;;;;4.55;2.15;;;;;;;;;;10455399;28;20054;-67
2022/05/16 05:42:32;;;;;;;4.47;2.10;;;;;;;;;;10434937;28;20073;-68
2022/05/16 05:47:35;;;;;;;4.95;2.00;;;;;;;;;;10450914;28;20052;-68
2022/05/16 05:52:38;;;;;;;7.32;2.20;;;;;;;;;;10472681;28;20054;-68
2022/05/16 05:57:41;;;;;;;5.88;2.00;;;;;;;;;;10467129;28;20060;-69
2022/05/16 06:02:44;;;;;;;2.38;1.42;;;;;;;;;;10471798;28;20065;-67
2022/05/16 06:07:46;;;;;;;3.55;1.65;;;;;;;;;;10472874;28;20045;-68
2022/05/16 06:12:51;;;;;;;5.47;1.70;;;;;;;;;;10436692;28;20298;-68
2022/05/16 06:17:53;;;;;;;6.90;1.63;;;;;;;;;;10419247;28;20046;-68
2022/05/16 06:22:56;;;;;;;5.20;1.40;;;;;;;;;;10393163;28;20062;-68
2022/05/16 06:28:00;;;;;;;6.90;1.58;;;;;;;;;;10424344;28;20061;-68
2022/05/16 06:33:04;;;;;;;4.20;3.13;;;;;;;;;;10432701;28;20041;-68
2022/05/16 06:38:09;;;;;;;2.53;1.60;;;;;;;;;;10451971;28;20052;-67
2022/05/16 06:43:14;;;;;;;3.05;1.55;;;;;;;;;;10422799;28;20311;-68
2022/05/16 06:48:16;;;;;;;3.10;1.63;;;;;;;;;;10432633;28;20065;-67
2022/05/16 06:53:21;;;;;;;4.40;2.00;;;;;;;;;;10454897;28;20061;-67
2022/05/16 06:58:26;;;;;;;3.72;2.25;;;;;;;;;;10433085;28;20292;-68
2022/05/16 07:03:32;;;;;;;4.43;2.50;;;;;;;;;;10416594;28;20065;-68
2022/05/16 07:08:34;;;;;;;4.50;2.95;;;;;;;;;;10410871;28;20046;-67
2022/05/16 07:13:38;;;;;;;5.40;3.25;;;;;;;;;;10390956;28;20361;-67
2022/05/16 07:18:40;;;;;;;5.05;3.80;;;;;;;;;;10389895;28;20050;-67
2022/05/16 07:23:42;;;;;;;15.30;14.00;;;;;;;;;;10446064;28;20049;-68
2022/05/16 07:28:46;;;;;;;6.40;5.82;;;;;;;;;;10440556;28;20069;-67
2022/05/16 07:33:48;;;;;;;6.35;6.05;;;;;;;;;;10422710;28;20228;-68
2022/05/16 07:38:51;;;;;;;8.05;7.75;;;;;;;;;;10436279;28;20057;-68
2022/05/16 07:43:54;;;;;;;7.82;7.53;;;;;;;;;;10398948;28;20073;-68
2022/05/16 07:48:57;;;;;;;7.00;6.80;;;;;;;;;;10414921;28;20344;-68
2022/05/16 07:54:00;;;;;;;7.10;6.90;;;;;;;;;;10459051;28;20356;-68
2022/05/16 07:59:04;;;;;;;7.57;7.28;;;;;;;;;;10438844;28;20371;-68
2022/05/16 08:04:07;;;;;;;10.63;10.23;;;;;;;;;;10439396;28;20104;-68
2022/05/16 08:14:30;;;;;;;14.20;13.57;;;;;;;;;;10445119;28;20057;-68
2022/05/16 08:19:35;;;;;;;14.88;14.18;;;;;;;;;;10440151;28;20232;-67
2022/05/16 08:24:37;;;;;;;17.65;16.83;;;;;;;;;;10399398;28;20041;-67
2022/05/16 08:29:41;;;;;;;16.83;16.02;;;;;;;;;;10436413;28;20053;-68
2022/05/16 08:34:43;;;;;;;18.40;17.50;;;;;;;;;;10434621;28;20050;-68
2022/05/16 08:39:55;;;;;;;19.63;18.63;;;;;;;;;;10472012;28;20076;-67
2022/05/16 08:45:02;;;;;;;22.70;21.55;;;;;;;;;;10418310;28;20049;-67
2022/05/16 08:50:09;;;;;;;25.38;24.08;;;;;;;;;;10408680;28;20045;-67
2022/05/16 08:55:25;;;;;;;27.35;25.95;;;;;;;;;;10435681;28;20068;-68
2022/05/16 09:00:48;;;;;;;28.48;26.98;;;;;;;;;;10432697;28;20049;-68
2022/05/16 09:05:54;;;;;;;21.05;20.00;;;;;;;;;;10407677;28;20067;-67
2022/05/16 09:11:03;;;;;;;14.25;13.63;;;;;;;;;;10465651;28;20053;-68
2022/05/16 09:16:21;;;;;;;9.27;8.88;;;;;;;;;;10448685;28;20049;-67
2022/05/16 09:21:31;;;;;;;6.13;5.93;;;;;;;;;;10440233;28;20041;-68
2022/05/16 09:26:48;;;;;;;3.65;3.55;;;;;;;;;;10420711;28;20100;-67
2022/05/16 09:31:55;;;;;;;2.78;2.67;;;;;;;;;;10434822;28;20081;-68
2022/05/16 09:37:00;;;;;;;1.35;1.35;;;;;;;;;;10424614;28;20091;-68
2022/05/16 09:42:11;;;;;;;0.10;0.10;;;;;;;;;;10408838;28;20053;-68
2022/05/16 09:47:26;;;;;;;2.63;1.35;;;;;;;;;;10434133;28;20347;-68
2022/05/16 09:52:29;;;;;;;13.02;2.40;;;;;;;;;;10437007;28;20065;-68
2022/05/16 09:57:38;;;;;;;3.45;1.63;;;;;;;;;;10410163;28;20277;-68
2022/05/16 10:02:43;;;;;;;6.97;2.03;;;;;;;;;;10416175;28;20390;-68
2022/05/16 10:07:48;;;;;;;7.22;2.05;;;;;;;;;;10443837;28;20115;-68
2022/05/16 10:12:52;;;;;;;4.88;2.08;;;;;;;;;;10438585;28;20092;-67
2022/05/16 10:17:57;;;;;;;9.20;2.40;;;;;;;;;;10392661;28;20236;-65
2022/05/16 10:23:03;;;;;;;4.60;2.03;;;;;;;;;;10421075;28;20290;-68
2022/05/16 10:28:08;;;;;;;5.10;1.60;;;;;;;;;;10452707;28;20073;-68
2022/05/16 10:33:28;;;;;;;7.45;1.63;;;;;;;;;;10408706;28;20049;-66
2022/05/16 10:38:48;;;;;;;7.03;3.80;;;;;;;;;;10431550;28;20089;-67
2022/05/16 10:44:01;;;;;;;12.77;4.10;;;;;;;;;;10426169;28;20112;-65
2022/05/16 10:49:10;;;;;;;4.03;1.38;;;;;;;;;;10405870;28;20100;-67
2022/05/16 10:54:15;;;;;;;4.70;1.40;;;;;;;;;;10396271;28;20080;-68
2022/05/16 10:59:37;;;;;;;4.80;1.15;;;;;;;;;;10399052;28;20376;-68
2022/05/16 11:04:57;;;;;;;3.22;1.42;;;;;;;;;;10444122;28;20041;-66
2022/05/16 11:10:05;;;;;;;8.32;1.50;;;;;;;;;;10460053;28;20049;-67
2022/05/16 11:15:14;;;;;;;4.38;1.92;;;;;;;;;;10445072;28;20099;-67
2022/05/16 11:20:24;;;;;;;3.67;1.13;;;;;;;;;;10444178;28;20045;-66
2022/05/16 11:25:34;;;;;;;7.97;1.42;;;;;;;;;;10397905;28;20053;-67
2022/05/16 11:30:44;;;;;;;3.72;1.10;;;;;;;;;;10440669;28;20109;-68
2022/05/16 11:35:51;;;;;;;5.75;1.10;;;;;;;;;;10397226;28;20060;-68
2022/05/16 11:41:00;;;;;;;2.72;1.10;;;;;;;;;;10397174;28;20050;-66
2022/05/16 11:46:20;;;;;;;3.90;1.13;;;;;;;;;;10423795;28;20060;-66
2022/05/16 11:51:34;;;;;;;2.13;1.30;;;;;;;;;;10466046;28;20461;-67
2022/05/16 12:02:15;;;;;;;5.45;1.30;;;;;;;;;;10412267;28;20062;-68
2022/05/16 12:07:30;;;;;;;3.35;0.85;;;;;;;;;;10423871;28;20267;-68
2022/05/16 12:12:38;;;;;;;7.70;1.33;;;;;;;;;;10437628;28;20076;-68
2022/05/16 12:17:50;;;;;;;3.03;1.05;;;;;;;;;;10438283;28;20069;-67
2022/05/16 12:22:53;;;;;;;3.10;1.23;;;;;;;;;;10437788;28;20053;-67
2022/05/16 12:28:19;;;;;;;2.03;1.20;;;;;;;;;;10437150;28;20065;-68
2022/05/16 12:33:50;;;;;;;5.35;0.80;;;;;;;;;;10468224;28;20053;-67
2022/05/16 12:38:59;;;;;;;4.68;3.10;;;;;;;;;;10471409;28;20041;-68
2022/05/16 12:44:14;;;;;;;3.97;2.80;;;;;;;;;;10437298;28;20050;-68
2022/05/16 12:49:49;;;;;;;6.22;1.50;;;;;;;;;;10450448;28;20052;-68
2022/05/16 12:55:17;;;;;;;7.78;1.05;;;;;;;;;;10436704;28;20045;-66
2022/05/16 13:00:23;;;;;;;5.32;3.90;;;;;;;;;;10435833;28;20306;-68
2022/05/16 13:05:36;;;;;;;5.57;1.05;;;;;;;;;;10474335;28;20050;-68
2022/05/16 13:10:51;;;;;;;4.60;1.10;;;;;;;;;;10460611;28;20041;-69
2022/05/16 13:16:01;;;;;;;3.10;0.70;;;;;;;;;;10467934;28;20244;-69
2022/05/16 13:21:11;;;;;;;4.50;1.58;;;;;;;;;;10412331;28;20042;-70
2022/05/16 13:31:40;;;;;;;7.03;2.23;;;;;;;;;;10462311;28;20049;-73
2022/05/16 13:36:45;;;;;;;2.80;1.95;;;;;;;;;;10447060;28;20087;-70
2022/05/16 13:41:57;;;;;;;6.72;1.33;;;;;;;;;;10462784;28;20072;-71
2022/05/16 13:47:01;;;;;;;2.47;1.00;;;;;;;;;;10442468;28;20041;-72
2022/05/16 13:52:04;;;;;;;2.33;1.38;;;;;;;;;;10436881;28;20249;-70
2022/05/16 13:57:09;;;;;;;;;;;;;;;;;;10476653;28;20052;-71
2022/05/16 14:02:15;;;;;;;5.13;1.45;;;;;;;;;;10439217;28;20207;-72
2022/05/16 14:07:20;;;;;;;2.00;0.68;;;;;;;;;;10447845;28;20056;-70
2022/05/16 14:12:29;;;;;;;2.28;0.80;;;;;;;;;;10448918;28;20067;-71
2022/05/16 14:17:36;;;;;;;5.80;0.80;;;;;;;;;;10454546;28;20041;-71
2022/05/16 14:22:44;;;;;;;4.53;2.75;;;;;;;;;;10422586;28;20240;-71
2022/05/16 14:27:59;;;;;;;2.92;0.90;;;;;;;;;;10480235;28;20360;-71
2022/05/16 14:33:06;;;;;;;1.67;0.80;;;;;;;;;;10448698;28;20041;-70
2022/05/16 14:38:13;;;;;;;2.20;0.80;;;;;;;;;;10468329;28;20378;-71
2022/05/16 14:43:31;;;;;;;3.67;1.05;;;;;;;;;;10446883;28;20375;-70
2022/05/16 14:48:34;;;;;;;13.10;4.95;;;;;;;;;;10447699;28;20053;-70
2022/05/16 14:53:38;;;;;;;1.52;1.42;;;;;;;;;;10477702;28;20048;-70
2022/05/16 14:58:41;;;;;;;2.78;1.02;;;;;;;;;;10435498;28;20045;-72
2022/05/16 15:09:07;;;;;;;3.72;1.92;;;;;;;;;;10407395;28;20092;-69
2022/05/16 15:14:11;;;;;;;3.38;1.25;;;;;;;;;;10441290;28;20037;-70
2022/05/16 15:19:14;;;;;;;4.13;1.60;;;;;;;;;;10432226;28;20049;-69
2022/05/16 15:24:22;;;;;;;8.63;7.78;;;;;;;;;;10432855;28;20171;-73
2022/05/16 15:29:26;;;;;;;3.88;1.30;;;;;;;;;;10441746;28;20076;-70
2022/05/16 15:34:30;;;;;;;2.97;1.10;;;;;;;;;;10435126;28;20041;-69
2022/05/16 15:39:34;;;;;;;1.20;0.90;;;;;;;;;;10433307;28;20053;-70
2022/05/16 15:44:39;;;;;;;6.15;2.75;;;;;;;;;;10439238;28;20077;-71
2022/05/16 15:49:46;;;;;;;3.78;1.08;;;;;;;;;;10450233;28;20162;-70
2022/05/16 15:54:49;;;;;;;6.38;1.33;;;;;;;;;;10483051;28;20075;-71
2022/05/16 15:59:54;;;;;;;6.20;0.90;;;;;;;;;;10444904;28;20073;-69
2022/05/16 16:10:18;;;;;;;1.10;0.90;;;;;;;;;;10440548;28;20371;-68
2022/05/16 16:15:24;;;;;;;3.72;1.20;;;;;;;;;;10439047;28;20049;-68
2022/05/16 16:20:26;;;;;;;11.13;1.67;;;;;;;;;;10459109;28;20333;-67
2022/05/16 16:25:34;;;;;;;29.05;2.58;;;;;;;;;;10437850;28;20041;-67
2022/05/16 16:30:44;;;;;;;1.23;0.80;;;;;;;;;;10439837;28;20053;-69
2022/05/16 16:35:47;;;;;;;7.55;1.40;;;;;;;;;;10451898;28;20038;-69
2022/05/16 16:40:52;;;;;;;3.75;2.35;;;;;;;;;;10450351;28;20045;-67
2022/05/16 16:45:56;;;;;;;8.73;3.17;;;;;;;;;;10444035;28;20057;-66
2022/05/16 16:50:59;;;;;;;3.97;1.88;;;;;;;;;;10430588;28;20249;-69
2022/05/16 17:01:25;;;;;;;4.32;1.48;;;;;;;;;;10478012;28;20067;-71
2022/05/16 17:06:29;;;;;;;0.80;0.80;;;;;;;;;;10492843;28;20040;-69
2022/05/16 17:11:31;;;;;;;3.00;1.10;;;;;;;;;;10474034;28;20063;-70
2022/05/16 17:16:36;;;;;;;7.82;1.40;;;;;;;;;;10465185;28;20073;-67
2022/05/16 17:21:39;;;;;;;11.48;1.83;;;;;;;;;;10463595;28;20053;-65
2022/05/16 17:26:41;;;;;;;5.15;1.20;;;;;;;;;;10433819;28;20092;-68
2022/05/16 17:31:47;;;;;;;2.60;1.00;;;;;;;;;;10459266;28;20061;-70
2022/05/16 17:36:51;;;;;;;8.07;1.67;;;;;;;;;;10490796;28;20048;-68
2022/05/16 17:41:53;;;;;;;2.50;1.42;;;;;;;;;;10478005;28;20053;-68
2022/05/16 17:46:57;;;;;;;3.03;1.42;;;;;;;;;;10445084;28;20092;-68
2022/05/16 17:52:01;;;;;;;8.57;1.60;;;;;;;;;;10445280;28;20336;-68
2022/05/16 17:57:04;;;;;;;4.80;2.17;;;;;;;;;;10449268;28;20049;-68
2022/05/16 18:02:11;;;;;;;5.70;2.05;;;;;;;;;;10474388;28;20087;-67
2022/05/16 18:07:13;;;;;;;7.22;3.33;;;;;;;;;;10465886;28;20046;-67
2022/05/16 18:17:51;;;;;;;7.63;1.80;;;;;;;;;;10324822;28;20073;-68
2022/05/16 18:22:55;;;;;;;3.53;1.60;;;;;;;;;;10394943;28;20050;-68
2022/05/16 18:27:57;;;;;;;1.97;1.70;;;;;;;;;;10439089;28;20107;-68
2022/05/16 18:33:07;;;;;;;3.45;2.15;;;;;;;;;;10470336;28;20094;-67
2022/05/16 18:38:10;;;;;;;6.57;2.35;;;;;;;;;;10488039;28;20067;-66
2022/05/16 18:53:58;;;;;;;7.75;2.17;;;;;;;;;;10477111;28;20052;-67
2022/05/16 18:59:03;;;;;;;6.03;2.40;;;;;;;;;;10447273;28;20057;-67
2022/05/16 19:04:07;;;;;;;7.00;3.10;;;;;;;;;;10471382;28;20047;-67
2022/05/16 19:09:10;;;;;;;10.67;3.43;;;;;;;;;;10442771;28;20045;-66
2022/05/16 19:14:13;;;;;;;8.60;4.40;;;;;;;;;;10414846;28;20080;-67
2022/05/16 19:19:20;;;;;;;16.25;5.57;;;;;;;;;;10392185;28;20076;-66
2022/05/16 19:24:22;;;;;;;27.10;10.73;;;;;;;;;;10458740;28;20062;-68
2022/05/16 19:34:46;;;;;;;31.55;11.93;;;;;;;;;;10419059;28;20060;-67
2022/05/16 19:39:48;;;;;;;28.57;12.27;;;;;;;;;;10432363;28;20077;-66
2022/05/16 19:44:51;;;;;;;16.75;8.15;;;;;;;;;;10406162;28;20073;-67
2022/05/16 19:49:56;;;;;;;17.23;8.57;;;;;;;;;;10397736;28;20076;-67
2022/05/16 19:54:58;;;;;;;22.95;9.43;;;;;;;;;;10446630;28;20053;-66
2022/05/16 20:00:00;;;;;;;29.33;8.15;;;;;;;;;;10472896;28;20069;-68
2022/05/16 20:05:06;;;;;;;28.15;10.63;;;;;;;;;;10447281;28;20056;-67
2022/05/16 20:10:10;;;;;;;28.20;9.50;;;;;;;;;;10444852;28;20071;-66
2022/05/16 20:15:13;;;;;;;25.90;8.80;;;;;;;;;;10433024;28;20054;-68
2022/05/16 20:20:17;;;;;;;23.10;8.15;;;;;;;;;;10444471;28;20053;-66
2022/05/16 20:25:29;;;;;;;21.90;6.40;;;;;;;;;;10450604;28;20041;-66
2022/05/16 20:30:34;;;;;;;21.15;7.03;;;;;;;;;;10466640;28;20049;-66
2022/05/16 20:35:39;;;;;;;15.45;5.85;;;;;;;;;;10462200;28;20140;-68
2022/05/16 20:40:45;;;;;;;19.15;7.68;;;;;;;;;;10469005;28;20061;-66
2022/05/16 20:45:47;;;;;;;20.95;5.95;;;;;;;;;;10461003;28;20045;-66
2022/05/16 20:50:51;;;;;;;62.05;40.40;;;;;;;;;;10457051;28;20256;-65
2022/05/16 20:55:54;;;;;;;22.88;11.98;;;;;;;;;;10440260;28;20064;-67
2022/05/16 21:00:57;;;;;;;16.73;5.63;;;;;;;;;;10437875;28;20057;-67
2022/05/16 21:06:01;;;;;;;18.25;8.25;;;;;;;;;;10438092;28;20045;-66
2022/05/16 21:11:04;;;;;;;17.70;7.15;;;;;;;;;;10409533;28;20061;-66
2022/05/16 21:16:06;;;;;;;16.10;8.45;;;;;;;;;;10398999;28;20049;-66
2022/05/16 21:21:10;;;;;;;16.63;4.05;;;;;;;;;;10473441;28;20053;-67
2022/05/16 21:26:14;;;;;;;18.08;6.60;;;;;;;;;;10426928;28;20083;-67
2022/05/16 21:31:16;;;;;;;15.85;6.15;;;;;;;;;;10449901;28;20076;-66
2022/05/16 21:36:20;;;;;;;10.35;5.15;;;;;;;;;;10436289;28;20359;-66
2022/05/16 21:41:23;;;;;;;12.35;5.00;;;;;;;;;;10450458;28;20053;-66
2022/05/16 21:46:25;;;;;;;17.83;5.53;;;;;;;;;;10415213;28;20041;-67
2022/05/16 21:51:29;;;;;;;13.20;5.55;;;;;;;;;;10455461;28;20085;-67
2022/05/16 21:56:31;;;;;;;10.98;5.40;;;;;;;;;;10435652;28;20092;-66
2022/05/16 22:01:34;;;;;;;32.80;5.75;;;;;;;;;;10404183;28;20101;-67
2022/05/16 22:06:40;;;;;;;19.85;5.55;;;;;;;;;;10458052;28;20489;-66
2022/05/16 22:11:43;;;;;;;13.20;4.30;;;;;;;;;;10450352;28;20049;-65
2022/05/16 22:16:46;;;;;;;8.63;3.88;;;;;;;;;;10475693;28;20049;-66
2022/05/16 22:21:50;;;;;;;8.65;3.88;;;;;;;;;;10458781;28;20045;-66
2022/05/16 22:26:52;;;;;;;;;;;;;;;;;;10438635;28;20036;-65
2022/05/16 22:31:55;;;;;;;8.52;3.60;;;;;;;;;;10458426;28;19963;-66
2022/05/16 22:36:58;;;;;;;12.82;3.88;;;;;;;;;;10433319;28;20312;-66
2022/05/16 22:42:01;;;;;;;6.40;3.40;;;;;;;;;;10442035;28;20095;-65
2022/05/16 22:47:04;;;;;;;5.25;3.28;;;;;;;;;;10476205;28;20279;-66
2022/05/16 22:52:08;;;;;;;7.90;3.55;;;;;;;;;;10392369;28;20058;-66
2022/05/16 22:57:10;;;;;;;9.60;3.85;;;;;;;;;;10424840;28;20352;-65
2022/05/16 23:07:38;;;;;;;7.88;3.42;;;;;;;;;;10465578;28;20060;-65
2022/05/16 23:12:40;;;;;;;8.15;3.40;;;;;;;;;;10405767;28;20042;-66
2022/05/16 23:17:44;;;;;;;7.50;3.58;;;;;;;;;;10468318;28;20053;-65
2022/05/16 23:22:48;;;;;;;7.78;3.72;;;;;;;;;;10399287;28;20069;-65
2022/05/16 23:27:51;;;;;;;8.45;3.58;;;;;;;;;;10401653;28;20086;-65
2022/05/16 23:32:54;;;;;;;6.68;3.88;;;;;;;;;;10410964;28;20070;-65
2022/05/16 23:37:57;;;;;;;6.20;3.70;;;;;;;;;;10466473;28;20393;-65
2022/05/16 23:43:00;;;;;;;8.68;3.70;;;;;;;;;;10473094;28;20366;-65
2022/05/16 23:48:03;;;;;;;7.43;3.78;;;;;;;;;;10473270;28;20041;-65
2022/05/16 23:53:08;;;;;;;5.88;3.72;;;;;;;;;;10439686;28;20099;-66
2022/05/16 23:58:10;;;;;;;4.93;3.10;;;;;;;;;;10431658;28;20053;-65
